sensor_id;sensor_type;location;lat;lon;timestamp;pressure;altitude;pressure_sealevel;temperature;humidity
75447;BME280;64024;55.820;37.574;2023-02-17T00:02:01;99528.41;;;18.64;34.30
75447;BME280;64024;55.820;37.574;2023-02-17T00:04:31;99536.94;;;18.56;34.36
75447;BME280;64024;55.820;37.574;2023-02-17T00:06:57;99529.56;;;18.47;34.39
75447;BME280;64024;55.820;37.574;2023-02-17T00:09:23;99539.16;;;18.37;34.46
75447;BME280;64024;55.820;37.574;2023-02-17T00:11:49;99541.47;;;18.29;34.57
75447;BME280;64024;55.820;37.574;2023-02-17T00:14:15;99536.53;;;18.21;34.48
75447;BME280;64024;55.820;37.574;2023-02-17T00:16:41;99542.59;;;18.11;34.54
75447;BME280;64024;55.820;37.574;2023-02-17T00:19:07;99537.66;;;18.03;34.65
75447;BME280;64024;55.820;37.574;2023-02-17T00:21:58;99534.56;;;17.94;34.55
75447;BME280;64024;55.820;37.574;2023-02-17T00:24:26;99535.81;;;17.86;34.66
75447;BME280;64024;55.820;37.574;2023-02-17T00:26:51;99531.88;;;17.94;34.49
75447;BME280;64024;55.820;37.574;2023-02-17T00:29:17;99536.00;;;17.80;34.67
75447;BME280;64024;55.820;37.574;2023-02-17T00:31:43;99537.69;;;17.69;34.66
75447;BME280;64024;55.820;37.574;2023-02-17T00:34:09;99533.00;;;17.59;34.65
75447;BME280;64024;55.820;37.574;2023-02-17T00:36:35;99528.03;;;17.51;34.76
75447;BME280;64024;55.820;37.574;2023-02-17T00:39:01;99522.81;;;17.45;34.72
75447;BME280;64024;55.820;37.574;2023-02-17T00:41:27;99523.00;;;17.38;34.99
75447;BME280;64024;55.820;37.574;2023-02-17T00:43:53;99530.97;;;17.33;34.89
75447;BME280;64024;55.820;37.574;2023-02-17T00:46:19;99522.03;;;17.27;34.88
75447;BME280;64024;55.820;37.574;2023-02-17T00:48:46;99524.06;;;17.20;34.85
75447;BME280;64024;55.820;37.574;2023-02-17T00:51:12;99521.28;;;17.15;34.97
75447;BME280;64024;55.820;37.574;2023-02-17T00:53:38;99517.47;;;17.11;35.02
75447;BME280;64024;55.820;37.574;2023-02-17T00:56:04;99525.19;;;17.07;35.11
75447;BME280;64024;55.820;37.574;2023-02-17T00:58:29;99524.31;;;17.02;35.14
75447;BME280;64024;55.820;37.574;2023-02-17T01:00:56;99516.16;;;16.97;35.49
75447;BME280;64024;55.820;37.574;2023-02-17T01:03:23;99519.59;;;16.92;35.26
75447;BME280;64024;55.820;37.574;2023-02-17T01:05:49;99515.75;;;16.88;35.38
75447;BME280;64024;55.820;37.574;2023-02-17T01:08:15;99512.97;;;16.83;35.35
75447;BME280;64024;55.820;37.574;2023-02-17T01:10:43;99513.69;;;16.78;35.26
75447;BME280;64024;55.820;37.574;2023-02-17T01:13:09;99514.16;;;16.75;35.22
75447;BME280;64024;55.820;37.574;2023-02-17T01:15:42;99509.50;;;16.71;35.27
75447;BME280;64024;55.820;37.574;2023-02-17T01:18:09;99511.03;;;16.66;35.27
75447;BME280;64024;55.820;37.574;2023-02-17T01:20:36;99509.66;;;16.64;35.48
75447;BME280;64024;55.820;37.574;2023-02-17T01:23:03;99510.38;;;16.59;35.25
75447;BME280;64024;55.820;37.574;2023-02-17T01:25:29;99510.88;;;16.56;35.43
75447;BME280;64024;55.820;37.574;2023-02-17T01:27:55;99512.41;;;16.52;35.61
75447;BME280;64024;55.820;37.574;2023-02-17T01:30:21;99516.38;;;16.50;35.67
75447;BME280;64024;55.820;37.574;2023-02-17T01:32:47;99510.66;;;16.46;35.32
75447;BME280;64024;55.820;37.574;2023-02-17T01:35:13;99519.22;;;16.43;35.58
75447;BME280;64024;55.820;37.574;2023-02-17T01:37:39;99513.50;;;16.39;35.69
75447;BME280;64024;55.820;37.574;2023-02-17T01:40:05;99510.47;;;16.36;35.53
75447;BME280;64024;55.820;37.574;2023-02-17T01:42:31;99506.38;;;16.33;35.25
75447;BME280;64024;55.820;37.574;2023-02-17T01:47:54;99507.13;;;16.29;35.79
75447;BME280;64024;55.820;37.574;2023-02-17T01:50:27;99514.00;;;16.25;35.70
75447;BME280;64024;55.820;37.574;2023-02-17T01:52:55;99512.84;;;16.21;35.75
75447;BME280;64024;55.820;37.574;2023-02-17T01:55:23;99516.84;;;16.18;35.53
75447;BME280;64024;55.820;37.574;2023-02-17T01:57:50;99515.44;;;16.15;35.71
75447;BME280;64024;55.820;37.574;2023-02-17T02:00:19;99513.22;;;16.12;35.52
75447;BME280;64024;55.820;37.574;2023-02-17T02:02:47;99517.22;;;16.10;35.89
75447;BME280;64024;55.820;37.574;2023-02-17T02:05:15;99522.78;;;16.08;35.86
75447;BME280;64024;55.820;37.574;2023-02-17T02:07:42;99518.72;;;16.06;35.62
75447;BME280;64024;55.820;37.574;2023-02-17T02:10:11;99515.47;;;16.04;35.82
75447;BME280;64024;55.820;37.574;2023-02-17T02:12:39;99513.25;;;16.01;35.56
75447;BME280;64024;55.820;37.574;2023-02-17T02:15:07;99513.50;;;15.99;36.14
75447;BME280;64024;55.820;37.574;2023-02-17T02:18:22;99515.63;;;15.97;35.88
75447;BME280;64024;55.820;37.574;2023-02-17T02:23:09;99504.06;;;15.97;36.20
75447;BME280;64024;55.820;37.574;2023-02-17T02:29:17;99512.84;;;16.21;35.86
75447;BME280;64024;55.820;37.574;2023-02-17T02:34:21;99510.88;;;16.56;35.74
75447;BME280;64024;55.820;37.574;2023-02-17T02:36:49;99503.31;;;16.70;35.50
75447;BME280;64024;55.820;37.574;2023-02-17T02:39:19;99500.59;;;16.82;35.20
75447;BME280;64024;55.820;37.574;2023-02-17T02:41:55;99508.34;;;16.95;34.97
75447;BME280;64024;55.820;37.574;2023-02-17T02:44:23;99505.09;;;17.10;35.10
75447;BME280;64024;55.820;37.574;2023-02-17T02:46:59;99494.84;;;17.24;34.78
75447;BME280;64024;55.820;37.574;2023-02-17T02:49:26;99502.56;;;17.37;34.60
75447;BME280;64024;55.820;37.574;2023-02-17T03:00:13;99508.94;;;17.86;34.20
75447;BME280;64024;55.820;37.574;2023-02-17T03:05:53;99516.28;;;18.13;33.50
75447;BME280;64024;55.820;37.574;2023-02-17T03:08:35;99518.56;;;18.26;33.56
75447;BME280;64024;55.820;37.574;2023-02-17T03:11:03;99507.91;;;18.36;33.29
75447;BME280;64024;55.820;37.574;2023-02-17T03:13:32;99508.84;;;18.47;33.41
75447;BME280;64024;55.820;37.574;2023-02-17T03:15:58;99514.91;;;18.59;33.38
75447;BME280;64024;55.820;37.574;2023-02-17T03:18:23;99506.88;;;18.64;33.29
75447;BME280;64024;55.820;37.574;2023-02-17T03:20:55;99501.22;;;18.66;33.02
75447;BME280;64024;55.820;37.574;2023-02-17T03:23:21;99499.59;;;18.65;33.44
75447;BME280;64024;55.820;37.574;2023-02-17T03:25:46;99502.56;;;18.63;33.53
75447;BME280;64024;55.820;37.574;2023-02-17T03:28:13;99501.19;;;18.61;33.59
75447;BME280;64024;55.820;37.574;2023-02-17T03:30:39;99500.63;;;18.59;33.60
75447;BME280;64024;55.820;37.574;2023-02-17T03:33:05;99494.13;;;18.55;33.86
75447;BME280;64024;55.820;37.574;2023-02-17T03:35:31;99495.94;;;18.49;33.39
75447;BME280;64024;55.820;37.574;2023-02-17T03:37:57;99496.47;;;18.46;33.77
75447;BME280;64024;55.820;37.574;2023-02-17T03:40:22;99498.84;;;18.43;33.87
75447;BME280;64024;55.820;37.574;2023-02-17T03:42:48;99496.91;;;18.38;33.89
75447;BME280;64024;55.820;37.574;2023-02-17T03:45:13;99500.59;;;18.32;33.91
75447;BME280;64024;55.820;37.574;2023-02-17T03:47:39;99500.56;;;18.27;34.02
75447;BME280;64024;55.820;37.574;2023-02-17T03:50:05;99507.19;;;18.19;34.06
75447;BME280;64024;55.820;37.574;2023-02-17T03:52:31;99502.00;;;18.12;34.09
75447;BME280;64024;55.820;37.574;2023-02-17T03:54:56;99503.81;;;18.07;34.17
75447;BME280;64024;55.820;37.574;2023-02-17T03:57:24;99505.88;;;18.00;34.40
75447;BME280;64024;55.820;37.574;2023-02-17T03:59:50;99503.94;;;17.95;34.55
75447;BME280;64024;55.820;37.574;2023-02-17T04:02:15;99501.44;;;17.88;34.76
75447;BME280;64024;55.820;37.574;2023-02-17T04:04:41;99499.50;;;17.84;34.92
75447;BME280;64024;55.820;37.574;2023-02-17T04:07:06;99505.84;;;17.78;35.09
75447;BME280;64024;55.820;37.574;2023-02-17T04:09:32;99498.50;;;17.73;35.12
75447;BME280;64024;55.820;37.574;2023-02-17T04:11:57;99505.94;;;17.66;35.02
75447;BME280;64024;55.820;37.574;2023-02-17T04:14:23;99505.88;;;17.61;35.17
75447;BME280;64024;55.820;37.574;2023-02-17T04:16:48;99503.38;;;17.54;35.12
75447;BME280;64024;55.820;37.574;2023-02-17T04:19:14;99504.94;;;17.50;35.35
75447;BME280;64024;55.820;37.574;2023-02-17T04:21:39;99505.91;;;17.44;35.14
75447;BME280;64024;55.820;37.574;2023-02-17T04:24:05;99504.75;;;17.40;35.26
75447;BME280;64024;55.820;37.574;2023-02-17T04:26:30;99503.88;;;17.34;35.28
75447;BME280;64024;55.820;37.574;2023-02-17T04:28:56;99501.69;;;17.31;35.23
75447;BME280;64024;55.820;37.574;2023-02-17T04:31:21;99495.44;;;17.26;35.16
75447;BME280;64024;55.820;37.574;2023-02-17T04:33:47;99505.25;;;17.20;35.29
75447;BME280;64024;55.820;37.574;2023-02-17T04:36:13;99491.50;;;17.17;35.17
75447;BME280;64024;55.820;37.574;2023-02-17T04:38:38;99502.97;;;17.12;35.06
75447;BME280;64024;55.820;37.574;2023-02-17T04:41:04;99503.72;;;17.07;35.23
75447;BME280;64024;55.820;37.574;2023-02-17T04:43:30;99501.75;;;17.03;35.32
75447;BME280;64024;55.820;37.574;2023-02-17T04:45:56;99494.19;;;17.00;35.38
75447;BME280;64024;55.820;37.574;2023-02-17T04:48:22;99506.47;;;16.96;35.42
75447;BME280;64024;55.820;37.574;2023-02-17T04:50:48;99513.16;;;16.93;35.38
75447;BME280;64024;55.820;37.574;2023-02-17T04:53:14;99513.06;;;16.88;35.45
75447;BME280;64024;55.820;37.574;2023-02-17T04:55:40;99513.56;;;16.85;35.30
75447;BME280;64024;55.820;37.574;2023-02-17T04:58:06;99508.66;;;16.82;35.56
75447;BME280;64024;55.820;37.574;2023-02-17T05:00:32;99511.00;;;16.78;35.46
75447;BME280;64024;55.820;37.574;2023-02-17T05:02:58;99514.16;;;16.75;35.69
75447;BME280;64024;55.820;37.574;2023-02-17T05:05:23;99510.13;;;16.73;35.92
75447;BME280;64024;55.820;37.574;2023-02-17T05:07:49;99506.00;;;16.70;36.02
75447;BME280;64024;55.820;37.574;2023-02-17T05:10:16;99514.53;;;16.67;36.03
75447;BME280;64024;55.820;37.574;2023-02-17T05:12:42;99509.38;;;16.77;36.05
75447;BME280;64024;55.820;37.574;2023-02-17T05:15:07;99505.19;;;16.70;35.81
75447;BME280;64024;55.820;37.574;2023-02-17T05:17:33;99504.53;;;16.62;36.11
75447;BME280;64024;55.820;37.574;2023-02-17T05:19:59;99496.38;;;16.57;36.05
75447;BME280;64024;55.820;37.574;2023-02-17T05:22:25;99503.28;;;16.53;36.03
75447;BME280;64024;55.820;37.574;2023-02-17T05:24:51;99507.28;;;16.51;36.42
75447;BME280;64024;55.820;37.574;2023-02-17T05:27:17;99507.50;;;16.49;36.31
75447;BME280;64024;55.820;37.574;2023-02-17T05:29:43;99506.94;;;16.47;36.24
75447;BME280;64024;55.820;37.574;2023-02-17T05:32:08;99511.72;;;16.45;36.32
75447;BME280;64024;55.820;37.574;2023-02-17T05:34:34;99506.59;;;16.44;36.57
75447;BME280;64024;55.820;37.574;2023-02-17T05:37:00;99508.69;;;16.41;36.60
75447;BME280;64024;55.820;37.574;2023-02-17T05:39:26;99510.00;;;16.39;36.55
75447;BME280;64024;55.820;37.574;2023-02-17T05:41:51;99511.88;;;16.38;36.61
75447;BME280;64024;55.820;37.574;2023-02-17T05:44:17;99507.53;;;16.37;36.70
75447;BME280;64024;55.820;37.574;2023-02-17T05:46:43;99504.31;;;16.35;36.67
75447;BME280;64024;55.820;37.574;2023-02-17T05:49:08;99508.03;;;16.34;36.56
75447;BME280;64024;55.820;37.574;2023-02-17T05:51:34;99515.50;;;16.32;36.56
75447;BME280;64024;55.820;37.574;2023-02-17T05:54:00;99516.31;;;16.33;36.54
75447;BME280;64024;55.820;37.574;2023-02-17T05:56:26;99525.41;;;16.32;36.86
75447;BME280;64024;55.820;37.574;2023-02-17T05:58:51;99514.94;;;16.30;36.62
75447;BME280;64024;55.820;37.574;2023-02-17T06:01:17;99514.94;;;16.30;36.87
75447;BME280;64024;55.820;37.574;2023-02-17T06:03:43;99519.72;;;16.28;36.56
75447;BME280;64024;55.820;37.574;2023-02-17T06:06:08;99521.59;;;16.28;36.90
75447;BME280;64024;55.820;37.574;2023-02-17T06:08:34;99528.81;;;16.27;36.75
75447;BME280;64024;55.820;37.574;2023-02-17T06:11:00;99525.53;;;16.25;37.08
75447;BME280;64024;55.820;37.574;2023-02-17T06:13:25;99523.69;;;16.26;37.26
75447;BME280;64024;55.820;37.574;2023-02-17T06:15:51;99529.88;;;16.26;37.08
75447;BME280;64024;55.820;37.574;2023-02-17T06:18:17;99530.91;;;16.25;37.18
75447;BME280;64024;55.820;37.574;2023-02-17T06:20:42;99527.41;;;16.25;37.28
75447;BME280;64024;55.820;37.574;2023-02-17T06:23:08;99534.66;;;16.24;37.33
75447;BME280;64024;55.820;37.574;2023-02-17T06:25:33;99533.13;;;16.28;37.55
75447;BME280;64024;55.820;37.574;2023-02-17T06:27:59;99544.63;;;16.40;37.51
75447;BME280;64024;55.820;37.574;2023-02-17T06:30:24;99536.88;;;16.56;37.34
75447;BME280;64024;55.820;37.574;2023-02-17T06:32:50;99543.34;;;16.72;37.04
75447;BME280;64024;55.820;37.574;2023-02-17T06:35:15;99538.59;;;16.90;36.81
75447;BME280;64024;55.820;37.574;2023-02-17T06:37:41;99542.94;;;17.08;36.64
75447;BME280;64024;55.820;37.574;2023-02-17T06:40:07;99535.72;;;17.26;36.24
75447;BME280;64024;55.820;37.574;2023-02-17T06:42:34;99528.53;;;17.48;36.21
75447;BME280;64024;55.820;37.574;2023-02-17T06:44:59;99524.19;;;17.64;36.01
75447;BME280;64024;55.820;37.574;2023-02-17T06:47:27;99531.94;;;17.77;35.54
75447;BME280;64024;55.820;37.574;2023-02-17T06:49:53;99527.84;;;17.92;35.39
75447;BME280;64024;55.820;37.574;2023-02-17T06:52:18;99525.59;;;18.05;35.10
75447;BME280;64024;55.820;37.574;2023-02-17T06:54:44;99535.47;;;18.22;34.89
75447;BME280;64024;55.820;37.574;2023-02-17T06:57:11;99531.31;;;18.36;34.82
75447;BME280;64024;55.820;37.574;2023-02-17T06:59:37;99526.13;;;18.51;34.64
75447;BME280;64024;55.820;37.574;2023-02-17T07:02:02;99527.34;;;18.66;34.54
75447;BME280;64024;55.820;37.574;2023-02-17T07:04:28;99532.38;;;18.79;34.25
75447;BME280;64024;55.820;37.574;2023-02-17T07:06:54;99521.97;;;18.93;33.94
75447;BME280;64024;55.820;37.574;2023-02-17T07:09:19;99526.63;;;19.02;34.04
75447;BME280;64024;55.820;37.574;2023-02-17T07:11:45;99528.56;;;19.07;33.69
75447;BME280;64024;55.820;37.574;2023-02-17T07:14:10;99526.66;;;19.07;33.57
75447;BME280;64024;55.820;37.574;2023-02-17T07:16:36;99524.25;;;19.06;33.45
75447;BME280;64024;55.820;37.574;2023-02-17T07:19:03;99527.44;;;19.03;33.32
75447;BME280;64024;55.820;37.574;2023-02-17T07:21:29;99525.00;;;19.01;33.34
75447;BME280;64024;55.820;37.574;2023-02-17T07:23:54;99523.63;;;18.99;33.32
75447;BME280;64024;55.820;37.574;2023-02-17T07:26:20;99521.22;;;18.97;33.37
75447;BME280;64024;55.820;37.574;2023-02-17T07:28:45;99525.22;;;18.95;33.22
75447;BME280;64024;55.820;37.574;2023-02-17T07:31:13;99520.38;;;18.92;33.19
75447;BME280;64024;55.820;37.574;2023-02-17T07:33:40;99523.56;;;18.88;33.23
75447;BME280;64024;55.820;37.574;2023-02-17T07:36:07;99519.75;;;18.84;33.16
75447;BME280;64024;55.820;37.574;2023-02-17T07:38:34;99526.97;;;18.79;33.17
75447;BME280;64024;55.820;37.574;2023-02-17T07:41:05;99527.72;;;18.74;33.08
75447;BME280;64024;55.820;37.574;2023-02-17T07:43:30;99522.25;;;18.69;33.31
75447;BME280;64024;55.820;37.574;2023-02-17T07:45:56;99516.03;;;18.63;33.28
75447;BME280;64024;55.820;37.574;2023-02-17T07:48:21;99525.66;;;18.59;33.49
75447;BME280;64024;55.820;37.574;2023-02-17T07:50:47;99519.97;;;18.56;33.59
75447;BME280;64024;55.820;37.574;2023-02-17T07:53:12;99523.75;;;18.55;33.80
75447;BME280;64024;55.820;37.574;2023-02-17T07:55:38;99518.59;;;18.53;33.95
75447;BME280;64024;55.820;37.574;2023-02-17T07:58:03;99514.84;;;18.54;33.98
75447;BME280;64024;55.820;37.574;2023-02-17T08:00:29;99511.91;;;18.56;33.94
75447;BME280;64024;55.820;37.574;2023-02-17T08:02:54;99515.66;;;18.55;34.13
75447;BME280;64024;55.820;37.574;2023-02-17T08:05:20;99516.16;;;18.52;34.05
75447;BME280;64024;55.820;37.574;2023-02-17T08:07:45;99513.16;;;18.48;34.41
75447;BME280;64024;55.820;37.574;2023-02-17T08:10:11;99511.81;;;18.46;34.51
75447;BME280;64024;55.820;37.574;2023-02-17T08:12:55;99516.34;;;18.45;34.36
75447;BME280;64024;55.820;37.574;2023-02-17T08:15:39;99513.91;;;18.44;34.24
75447;BME280;64024;55.820;37.574;2023-02-17T08:18:05;99509.84;;;18.41;34.47
75447;BME280;64024;55.820;37.574;2023-02-17T08:20:31;99503.91;;;18.39;34.40
75447;BME280;64024;55.820;37.574;2023-02-17T08:22:56;99504.72;;;18.39;34.32
75447;BME280;64024;55.820;37.574;2023-02-17T08:25:22;99504.72;;;18.39;34.53
75447;BME280;64024;55.820;37.574;2023-02-17T08:27:47;99505.78;;;18.38;34.77
75447;BME280;64024;55.820;37.574;2023-02-17T08:30:13;99508.72;;;18.37;34.49
75447;BME280;64024;55.820;37.574;2023-02-17T08:32:39;99503.59;;;18.35;34.78
75447;BME280;64024;55.820;37.574;2023-02-17T08:35:05;99501.19;;;18.34;34.73
75447;BME280;64024;55.820;37.574;2023-02-17T08:37:31;99497.69;;;18.33;35.05
75447;BME280;64024;55.820;37.574;2023-02-17T08:39:56;99497.69;;;18.33;35.08
75447;BME280;64024;55.820;37.574;2023-02-17T08:42:25;99502.22;;;18.33;35.24
75447;BME280;64024;55.820;37.574;2023-02-17T08:44:51;99495.00;;;18.33;35.26
75447;BME280;64024;55.820;37.574;2023-02-17T08:47:16;99498.50;;;18.34;35.05
75447;BME280;64024;55.820;37.574;2023-02-17T08:49:42;99484.22;;;18.33;35.20
75447;BME280;64024;55.820;37.574;2023-02-17T08:52:07;99495.00;;;18.33;35.13
75447;BME280;64024;55.820;37.574;2023-02-17T08:54:33;99496.84;;;18.33;35.16
75447;BME280;64024;55.820;37.574;2023-02-17T08:56:58;99483.38;;;18.33;35.13
75447;BME280;64024;55.820;37.574;2023-02-17T08:59:24;99487.97;;;18.32;35.27
75447;BME280;64024;55.820;37.574;2023-02-17T09:01:49;99484.47;;;18.32;34.93
75447;BME280;64024;55.820;37.574;2023-02-17T09:04:16;99489.84;;;18.32;35.04
75447;BME280;64024;55.820;37.574;2023-02-17T09:06:48;99495.22;;;18.32;34.92
75447;BME280;64024;55.820;37.574;2023-02-17T09:09:17;99489.84;;;18.32;34.95
75447;BME280;64024;55.820;37.574;2023-02-17T09:11:44;99489.28;;;18.30;34.93
75447;BME280;64024;55.820;37.574;2023-02-17T09:14:09;99479.59;;;18.29;34.83
75447;BME280;64024;55.820;37.574;2023-02-17T09:16:35;99477.97;;;18.28;34.70
75447;BME280;64024;55.820;37.574;2023-02-17T09:19:01;99485.22;;;18.27;34.51
75447;BME280;64024;55.820;37.574;2023-02-17T09:21:27;99499.16;;;18.24;34.50
75447;BME280;64024;55.820;37.574;2023-02-17T09:23:53;99483.72;;;18.14;34.07
75447;BME280;64024;55.820;37.574;2023-02-17T09:26:19;99484.66;;;18.03;33.73
75447;BME280;64024;55.820;37.574;2023-02-17T09:28:45;99476.00;;;17.96;33.81
75447;BME280;64024;55.820;37.574;2023-02-17T09:33:39;99472.19;;;17.92;33.98
75447;BME280;64024;55.820;37.574;2023-02-17T09:36:06;99475.91;;;17.91;34.09
75447;BME280;64024;55.820;37.574;2023-02-17T09:38:32;99463.53;;;17.90;33.96
75447;BME280;64024;55.820;37.574;2023-02-17T09:41:03;99465.41;;;17.89;34.00
75447;BME280;64024;55.820;37.574;2023-02-17T09:43:32;99463.53;;;17.90;33.98
75447;BME280;64024;55.820;37.574;2023-02-17T09:46:04;99461.91;;;17.89;33.98
75447;BME280;64024;55.820;37.574;2023-02-17T09:48:32;99456.81;;;17.87;33.91
75447;BME280;64024;55.820;37.574;2023-02-17T09:51:05;99460.78;;;17.85;34.08
75447;BME280;64024;55.820;37.574;2023-02-17T09:56:13;99462.34;;;17.81;34.00
75447;BME280;64024;55.820;37.574;2023-02-17T09:58:46;99454.56;;;17.79;34.19
75447;BME280;64024;55.820;37.574;2023-02-17T10:01:24;99458.53;;;17.77;34.28
75447;BME280;64024;55.820;37.574;2023-02-17T10:03:58;99449.09;;;17.74;34.30
75447;BME280;64024;55.820;37.574;2023-02-17T10:06:29;99454.69;;;17.73;34.50
75447;BME280;64024;55.820;37.574;2023-02-17T10:14:26;99454.63;;;17.68;34.55
75447;BME280;64024;55.820;37.574;2023-02-17T10:17:22;99447.88;;;17.65;34.36
75447;BME280;64024;55.820;37.574;2023-02-17T10:20:03;99440.88;;;17.64;34.50
75447;BME280;64024;55.820;37.574;2023-02-17T10:22:30;99441.38;;;17.61;34.63
75447;BME280;64024;55.820;37.574;2023-02-17T10:24:56;99443.50;;;17.59;34.48
75447;BME280;64024;55.820;37.574;2023-02-17T10:30:37;99429.50;;;17.57;34.57
75447;BME280;64024;55.820;37.574;2023-02-17T10:36:10;99426.75;;;17.52;34.63
75447;BME280;64024;55.820;37.574;2023-02-17T10:38:51;99427.00;;;17.50;34.78
75447;BME280;64024;55.820;37.574;2023-02-17T10:41:37;99424.53;;;17.49;34.73
75447;BME280;64024;55.820;37.574;2023-02-17T10:44:12;99416.97;;;17.46;34.88
75447;BME280;64024;55.820;37.574;2023-02-17T10:46:40;99416.16;;;17.45;34.74
75447;BME280;64024;55.820;37.574;2023-02-17T10:49:25;99416.16;;;17.45;34.90
75447;BME280;64024;55.820;37.574;2023-02-17T10:51:51;99415.66;;;17.48;34.99
75447;BME280;64024;55.820;37.574;2023-02-17T10:54:31;99410.03;;;17.50;35.28
75447;BME280;64024;55.820;37.574;2023-02-17T10:57:02;99411.69;;;17.51;35.27
75447;BME280;64024;55.820;37.574;2023-02-17T10:59:40;99414.38;;;17.51;35.14
75447;BME280;64024;55.820;37.574;2023-02-17T11:02:20;99404.66;;;17.50;35.29
75447;BME280;64024;55.820;37.574;2023-02-17T11:04:49;99404.94;;;17.48;35.03
75447;BME280;64024;55.820;37.574;2023-02-17T11:07:18;99404.38;;;17.46;35.19
75447;BME280;64024;55.820;37.574;2023-02-17T11:09:51;99404.59;;;17.45;35.33
75447;BME280;64024;55.820;37.574;2023-02-17T11:12:27;99400.31;;;17.44;35.24
75447;BME280;64024;55.820;37.574;2023-02-17T11:14:54;99405.09;;;17.42;35.37
75447;BME280;64024;55.820;37.574;2023-02-17T11:20:07;99402.66;;;17.40;35.39
75447;BME280;64024;55.820;37.574;2023-02-17T11:22:39;99401.38;;;17.43;35.64
75447;BME280;64024;55.820;37.574;2023-02-17T11:25:23;99391.00;;;17.51;35.74
75447;BME280;64024;55.820;37.574;2023-02-17T11:27:58;99388.41;;;17.61;35.75
75447;BME280;64024;55.820;37.574;2023-02-17T11:30:26;99390.44;;;17.71;35.97
75447;BME280;64024;55.820;37.574;2023-02-17T11:32:52;99391.66;;;17.80;35.79
75447;BME280;64024;55.820;37.574;2023-02-17T11:38:15;99380.81;;;17.97;35.89
75447;BME280;64024;55.820;37.574;2023-02-17T11:40:53;99375.97;;;17.99;35.92
75447;BME280;64024;55.820;37.574;2023-02-17T11:43:19;99370.38;;;18.01;35.96
75447;BME280;64024;55.820;37.574;2023-02-17T11:46:13;99374.94;;;18.00;35.93
75447;BME280;64024;55.820;37.574;2023-02-17T11:49:05;99373.28;;;17.99;35.76
75447;BME280;64024;55.820;37.574;2023-02-17T11:59:51;99362.84;;;17.76;35.81
75447;BME280;64024;55.820;37.574;2023-02-17T12:05:24;99367.28;;;17.70;35.94
75447;BME280;64024;55.820;37.574;2023-02-17T12:13:40;99356.19;;;17.61;35.91
75447;BME280;64024;55.820;37.574;2023-02-17T12:35:18;99364.56;;;17.43;35.78
75447;BME280;64024;55.820;37.574;2023-02-17T12:38:10;99361.06;;;17.43;36.11
75447;BME280;64024;55.820;37.574;2023-02-17T12:40:38;99352.69;;;17.39;35.92
75447;BME280;64024;55.820;37.574;2023-02-17T12:43:35;99348.38;;;17.38;36.07
75447;BME280;64024;55.820;37.574;2023-02-17T12:46:08;99355.88;;;17.36;36.00
75447;BME280;64024;55.820;37.574;2023-02-17T12:48:38;99342.94;;;17.33;35.91
75447;BME280;64024;55.820;37.574;2023-02-17T12:51:27;99353.66;;;17.33;35.70
75447;BME280;64024;55.820;37.574;2023-02-17T12:54:19;99352.06;;;17.32;36.44
75447;BME280;64024;55.820;37.574;2023-02-17T12:59:25;99351.41;;;17.25;36.18
75447;BME280;64024;55.820;37.574;2023-02-17T13:02:09;99350.88;;;17.23;36.09
75447;BME280;64024;55.820;37.574;2023-02-17T13:04:36;99352.75;;;17.22;36.12
75447;BME280;64024;55.820;37.574;2023-02-17T13:09:44;99342.75;;;17.18;36.68
75447;BME280;64024;55.820;37.574;2023-02-17T13:12:28;99347.53;;;17.15;36.25
75447;BME280;64024;55.820;37.574;2023-02-17T13:14:57;99347.81;;;17.14;36.41
75447;BME280;64024;55.820;37.574;2023-02-17T13:17:51;99342.66;;;17.12;36.31
75447;BME280;64024;55.820;37.574;2023-02-17T13:22:43;99341.53;;;17.08;36.41
75447;BME280;64024;55.820;37.574;2023-02-17T13:25:27;99345.28;;;17.07;36.67
75447;BME280;64024;55.820;37.574;2023-02-17T13:27:53;99347.41;;;17.05;36.49
75447;BME280;64024;55.820;37.574;2023-02-17T13:33:25;99339.38;;;17.05;36.71
75447;BME280;64024;55.820;37.574;2023-02-17T13:35:51;99334.00;;;17.05;36.91
75447;BME280;64024;55.820;37.574;2023-02-17T13:38:31;99334.00;;;17.05;36.80
75447;BME280;64024;55.820;37.574;2023-02-17T13:41:02;99328.03;;;17.03;36.46
75447;BME280;64024;55.820;37.574;2023-02-17T13:43:29;99330.19;;;17.01;36.54
75447;BME280;64024;55.820;37.574;2023-02-17T13:46:03;99322.34;;;17.00;36.80
75447;BME280;64024;55.820;37.574;2023-02-17T13:48:31;99321.81;;;16.98;36.72
75447;BME280;64024;55.820;37.574;2023-02-17T13:51:04;99321.22;;;16.96;36.77
75447;BME280;64024;55.820;37.574;2023-02-17T13:53:38;99320.66;;;16.94;36.84
75447;BME280;64024;55.820;37.574;2023-02-17T13:56:10;99306.66;;;16.92;36.89
75447;BME280;64024;55.820;37.574;2023-02-17T13:58:38;99308.53;;;16.91;37.05
75447;BME280;64024;55.820;37.574;2023-02-17T14:01:06;99304.50;;;16.88;36.89
75447;BME280;64024;55.820;37.574;2023-02-17T14:06:04;99304.97;;;16.85;36.95
75447;BME280;64024;55.820;37.574;2023-02-17T14:08:37;99309.78;;;16.83;36.65
75447;BME280;64024;55.820;37.574;2023-02-17T14:13:35;99312.16;;;16.80;36.91
75447;BME280;64024;55.820;37.574;2023-02-17T14:16:02;99303.53;;;16.78;36.86
75447;BME280;64024;55.820;37.574;2023-02-17T14:18:37;99308.34;;;16.76;36.90
75447;BME280;64024;55.820;37.574;2023-02-17T14:21:08;99311.25;;;16.74;37.12
75447;BME280;64024;55.820;37.574;2023-02-17T14:23:46;99309.63;;;16.73;36.86
75447;BME280;64024;55.820;37.574;2023-02-17T14:26:35;99310.91;;;16.71;37.12
75447;BME280;64024;55.820;37.574;2023-02-17T14:29:06;99297.75;;;16.69;36.92
75447;BME280;64024;55.820;37.574;2023-02-17T14:31:52;99306.84;;;16.68;37.07
75447;BME280;64024;55.820;37.574;2023-02-17T14:34:32;99299.03;;;16.66;37.10
75447;BME280;64024;55.820;37.574;2023-02-17T14:37:09;99303.84;;;16.64;37.18